sensor_id;sensor_type;location;lat;lon;timestamp;P1;durP1;ratioP1;P2;durP2;ratioP2
21639;SDS011;10981;45.462;10.974;2022-12-18T00:00:06;32.35;;;20.85;;
21639;SDS011;10981;45.462;10.974;2022-12-18T00:02:41;31.30;;;19.00;;
21639;SDS011;10981;45.462;10.974;2022-12-18T00:05:09;31.08;;;18.08;;
21639;SDS011;10981;45.462;10.974;2022-12-18T00:07:37;29.55;;;18.95;;
21639;SDS011;10981;45.462;10.974;2022-12-18T00:10:06;32.00;;;18.33;;
21639;SDS011;10981;45.462;10.974;2022-12-18T00:12:34;31.13;;;18.65;;
21639;SDS011;10981;45.462;10.974;2022-12-18T00:15:02;29.77;;;18.58;;
21639;SDS011;10981;45.462;10.974;2022-12-18T00:17:31;27.42;;;18.10;;
21639;SDS011;10981;45.462;10.974;2022-12-18T00:19:59;28.65;;;18.40;;
21639;SDS011;10981;45.462;10.974;2022-12-18T00:22:28;30.98;;;18.98;;
21639;SDS011;10981;45.462;10.974;2022-12-18T00:24:56;27.45;;;18.27;;
21639;SDS011;10981;45.462;10.974;2022-12-18T00:27:27;26.77;;;18.27;;
21639;SDS011;10981;45.462;10.974;2022-12-18T00:29:55;26.85;;;15.93;;
21639;SDS011;10981;45.462;10.974;2022-12-18T00:32:24;26.08;;;17.75;;
21639;SDS011;10981;45.462;10.974;2022-12-18T00:34:52;27.75;;;16.83;;
21639;SDS011;10981;45.462;10.974;2022-12-18T00:37:20;30.27;;;18.25;;
21639;SDS011;10981;45.462;10.974;2022-12-18T00:39:50;28.55;;;16.85;;
21639;SDS011;10981;45.462;10.974;2022-12-18T00:42:38;31.40;;;17.65;;
21639;SDS011;10981;45.462;10.974;2022-12-18T00:45:25;24.35;;;16.70;;
21639;SDS011;10981;45.462;10.974;2022-12-18T00:47:55;26.63;;;16.88;;
21639;SDS011;10981;45.462;10.974;2022-12-18T00:50:24;27.83;;;17.63;;
21639;SDS011;10981;45.462;10.974;2022-12-18T00:52:53;25.50;;;16.95;;
21639;SDS011;10981;45.462;10.974;2022-12-18T00:55:22;30.10;;;17.35;;
21639;SDS011;10981;45.462;10.974;2022-12-18T00:57:51;26.83;;;17.77;;
21639;SDS011;10981;45.462;10.974;2022-12-18T01:00:19;27.98;;;18.40;;
21639;SDS011;10981;45.462;10.974;2022-12-18T01:02:50;28.00;;;16.73;;
21639;SDS011;10981;45.462;10.974;2022-12-18T01:05:19;25.20;;;16.33;;
21639;SDS011;10981;45.462;10.974;2022-12-18T01:07:47;28.08;;;19.23;;
21639;SDS011;10981;45.462;10.974;2022-12-18T01:10:15;26.83;;;16.27;;
21639;SDS011;10981;45.462;10.974;2022-12-18T01:12:44;27.75;;;17.88;;
21639;SDS011;10981;45.462;10.974;2022-12-18T01:15:13;22.85;;;16.70;;
21639;SDS011;10981;45.462;10.974;2022-12-18T01:17:42;25.98;;;16.88;;
21639;SDS011;10981;45.462;10.974;2022-12-18T01:20:11;36.10;;;20.73;;
21639;SDS011;10981;45.462;10.974;2022-12-18T01:22:40;32.00;;;19.63;;
21639;SDS011;10981;45.462;10.974;2022-12-18T01:25:08;32.80;;;21.77;;
21639;SDS011;10981;45.462;10.974;2022-12-18T01:27:37;33.22;;;20.58;;
21639;SDS011;10981;45.462;10.974;2022-12-18T01:30:08;32.47;;;21.20;;
21639;SDS011;10981;45.462;10.974;2022-12-18T01:32:37;33.42;;;20.05;;
21639;SDS011;10981;45.462;10.974;2022-12-18T01:35:05;35.05;;;23.10;;
21639;SDS011;10981;45.462;10.974;2022-12-18T01:37:34;36.63;;;22.13;;
21639;SDS011;10981;45.462;10.974;2022-12-18T01:40:02;34.25;;;20.55;;
21639;SDS011;10981;45.462;10.974;2022-12-18T01:42:31;33.33;;;21.80;;
21639;SDS011;10981;45.462;10.974;2022-12-18T01:47:47;30.92;;;19.95;;
21639;SDS011;10981;45.462;10.974;2022-12-18T01:53:06;34.25;;;20.23;;
21639;SDS011;10981;45.462;10.974;2022-12-18T01:55:44;30.55;;;20.05;;
21639;SDS011;10981;45.462;10.974;2022-12-18T01:58:24;29.27;;;18.77;;
21639;SDS011;10981;45.462;10.974;2022-12-18T02:00:59;28.50;;;16.98;;
21639;SDS011;10981;45.462;10.974;2022-12-18T02:03:28;24.45;;;17.05;;
21639;SDS011;10981;45.462;10.974;2022-12-18T02:27:58;25.85;;;16.00;;
21639;SDS011;10981;45.462;10.974;2022-12-18T02:30:31;31.65;;;17.85;;
21639;SDS011;10981;45.462;10.974;2022-12-18T02:33:04;25.30;;;16.52;;
21639;SDS011;10981;45.462;10.974;2022-12-18T02:35:38;27.02;;;17.98;;
21639;SDS011;10981;45.462;10.974;2022-12-18T02:38:09;25.20;;;16.73;;
21639;SDS011;10981;45.462;10.974;2022-12-18T02:40:39;23.92;;;15.93;;
21639;SDS011;10981;45.462;10.974;2022-12-18T02:43:13;27.48;;;17.77;;
21639;SDS011;10981;45.462;10.974;2022-12-18T02:45:52;26.88;;;16.73;;
21639;SDS011;10981;45.462;10.974;2022-12-18T02:48:29;26.42;;;17.45;;
21639;SDS011;10981;45.462;10.974;2022-12-18T02:53:58;26.08;;;16.95;;
21639;SDS011;10981;45.462;10.974;2022-12-18T02:56:39;26.10;;;16.55;;
21639;SDS011;10981;45.462;10.974;2022-12-18T02:59:43;28.63;;;17.45;;
21639;SDS011;10981;45.462;10.974;2022-12-18T03:04:50;26.60;;;17.75;;
21639;SDS011;10981;45.462;10.974;2022-12-18T03:07:27;24.15;;;17.20;;
21639;SDS011;10981;45.462;10.974;2022-12-18T03:10:13;28.15;;;17.38;;
21639;SDS011;10981;45.462;10.974;2022-12-18T03:12:53;33.17;;;18.85;;
21639;SDS011;10981;45.462;10.974;2022-12-18T03:15:34;27.70;;;17.27;;
21639;SDS011;10981;45.462;10.974;2022-12-18T03:20:53;31.90;;;19.35;;
21639;SDS011;10981;45.462;10.974;2022-12-18T03:25:59;26.58;;;18.13;;
21639;SDS011;10981;45.462;10.974;2022-12-18T03:28:39;27.98;;;19.35;;
21639;SDS011;10981;45.462;10.974;2022-12-18T03:31:13;31.00;;;18.88;;
21639;SDS011;10981;45.462;10.974;2022-12-18T03:33:46;34.60;;;20.50;;
21639;SDS011;10981;45.462;10.974;2022-12-18T03:36:34;29.52;;;18.05;;
21639;SDS011;10981;45.462;10.974;2022-12-18T03:39:02;27.52;;;18.50;;
21639;SDS011;10981;45.462;10.974;2022-12-18T03:42:19;26.92;;;17.83;;
21639;SDS011;10981;45.462;10.974;2022-12-18T03:44:39;27.30;;;17.50;;
21639;SDS011;10981;45.462;10.974;2022-12-18T03:52:48;26.73;;;18.50;;
21639;SDS011;10981;45.462;10.974;2022-12-18T03:55:28;29.17;;;18.48;;
21639;SDS011;10981;45.462;10.974;2022-12-18T03:58:03;31.52;;;20.20;;
21639;SDS011;10981;45.462;10.974;2022-12-18T04:00:51;30.92;;;20.15;;
21639;SDS011;10981;45.462;10.974;2022-12-18T04:03:23;36.08;;;19.63;;
21639;SDS011;10981;45.462;10.974;2022-12-18T04:05:54;31.58;;;19.98;;
21639;SDS011;10981;45.462;10.974;2022-12-18T04:08:23;32.25;;;20.08;;
21639;SDS011;10981;45.462;10.974;2022-12-18T04:11:01;23.10;;;15.98;;
21639;SDS011;10981;45.462;10.974;2022-12-18T04:13:33;24.40;;;16.67;;
21639;SDS011;10981;45.462;10.974;2022-12-18T04:16:07;25.60;;;16.63;;
21639;SDS011;10981;45.462;10.974;2022-12-18T04:18:40;23.65;;;15.82;;
21639;SDS011;10981;45.462;10.974;2022-12-18T04:21:09;24.45;;;14.85;;
21639;SDS011;10981;45.462;10.974;2022-12-18T04:23:37;21.30;;;13.60;;
21639;SDS011;10981;45.462;10.974;2022-12-18T04:26:07;22.50;;;13.93;;
21639;SDS011;10981;45.462;10.974;2022-12-18T04:29:00;20.58;;;13.52;;
21639;SDS011;10981;45.462;10.974;2022-12-18T04:31:28;17.60;;;12.55;;
21639;SDS011;10981;45.462;10.974;2022-12-18T04:33:57;20.52;;;13.82;;
21639;SDS011;10981;45.462;10.974;2022-12-18T04:36:26;23.95;;;14.40;;
21639;SDS011;10981;45.462;10.974;2022-12-18T04:38:55;21.27;;;14.10;;
21639;SDS011;10981;45.462;10.974;2022-12-18T04:41:23;19.35;;;12.75;;
21639;SDS011;10981;45.462;10.974;2022-12-18T04:43:53;23.60;;;13.80;;
21639;SDS011;10981;45.462;10.974;2022-12-18T04:46:21;23.60;;;14.73;;
21639;SDS011;10981;45.462;10.974;2022-12-18T04:48:49;19.10;;;12.32;;
21639;SDS011;10981;45.462;10.974;2022-12-18T04:51:18;18.75;;;13.27;;
21639;SDS011;10981;45.462;10.974;2022-12-18T04:53:52;23.63;;;14.02;;
21639;SDS011;10981;45.462;10.974;2022-12-18T04:56:21;20.27;;;14.07;;
21639;SDS011;10981;45.462;10.974;2022-12-18T04:58:49;23.27;;;15.23;;
21639;SDS011;10981;45.462;10.974;2022-12-18T05:01:17;22.60;;;13.88;;
21639;SDS011;10981;45.462;10.974;2022-12-18T05:03:46;19.35;;;13.45;;
21639;SDS011;10981;45.462;10.974;2022-12-18T05:06:14;20.92;;;14.63;;
21639;SDS011;10981;45.462;10.974;2022-12-18T05:08:42;22.65;;;14.35;;
21639;SDS011;10981;45.462;10.974;2022-12-18T05:11:13;20.10;;;14.07;;
21639;SDS011;10981;45.462;10.974;2022-12-18T05:13:43;22.38;;;14.80;;
21639;SDS011;10981;45.462;10.974;2022-12-18T05:16:12;23.92;;;15.90;;
21639;SDS011;10981;45.462;10.974;2022-12-18T05:18:41;23.30;;;15.75;;
21639;SDS011;10981;45.462;10.974;2022-12-18T05:21:09;24.98;;;15.18;;
21639;SDS011;10981;45.462;10.974;2022-12-18T05:23:37;19.90;;;14.18;;
21639;SDS011;10981;45.462;10.974;2022-12-18T05:26:06;22.02;;;15.38;;
21639;SDS011;10981;45.462;10.974;2022-12-18T05:28:38;21.13;;;14.65;;
21639;SDS011;10981;45.462;10.974;2022-12-18T05:31:06;19.75;;;13.48;;
21639;SDS011;10981;45.462;10.974;2022-12-18T05:33:35;19.48;;;13.40;;
21639;SDS011;10981;45.462;10.974;2022-12-18T05:36:05;18.92;;;12.88;;
21639;SDS011;10981;45.462;10.974;2022-12-18T05:38:35;21.02;;;14.60;;
21639;SDS011;10981;45.462;10.974;2022-12-18T05:41:05;18.73;;;12.88;;
21639;SDS011;10981;45.462;10.974;2022-12-18T05:43:35;20.85;;;14.20;;
21639;SDS011;10981;45.462;10.974;2022-12-18T05:46:06;20.75;;;14.50;;
21639;SDS011;10981;45.462;10.974;2022-12-18T05:48:36;22.73;;;13.82;;
21639;SDS011;10981;45.462;10.974;2022-12-18T05:51:08;21.00;;;14.77;;
21639;SDS011;10981;45.462;10.974;2022-12-18T05:53:43;18.20;;;13.82;;
21639;SDS011;10981;45.462;10.974;2022-12-18T05:56:15;21.63;;;13.80;;
21639;SDS011;10981;45.462;10.974;2022-12-18T05:58:46;19.83;;;13.57;;
21639;SDS011;10981;45.462;10.974;2022-12-18T06:01:19;21.67;;;14.48;;
21639;SDS011;10981;45.462;10.974;2022-12-18T06:03:52;23.33;;;13.32;;
21639;SDS011;10981;45.462;10.974;2022-12-18T06:06:22;18.40;;;13.60;;
21639;SDS011;10981;45.462;10.974;2022-12-18T06:08:52;23.08;;;14.55;;
21639;SDS011;10981;45.462;10.974;2022-12-18T06:11:22;21.70;;;14.63;;
21639;SDS011;10981;45.462;10.974;2022-12-18T06:13:55;22.80;;;13.27;;
21639;SDS011;10981;45.462;10.974;2022-12-18T06:16:26;21.52;;;14.20;;
21639;SDS011;10981;45.462;10.974;2022-12-18T06:18:56;19.52;;;12.80;;
21639;SDS011;10981;45.462;10.974;2022-12-18T06:21:28;21.50;;;12.80;;
21639;SDS011;10981;45.462;10.974;2022-12-18T06:23:58;20.40;;;13.60;;
21639;SDS011;10981;45.462;10.974;2022-12-18T06:26:26;21.85;;;13.27;;
21639;SDS011;10981;45.462;10.974;2022-12-18T06:28:55;21.42;;;13.63;;
21639;SDS011;10981;45.462;10.974;2022-12-18T06:31:24;21.33;;;14.02;;
21639;SDS011;10981;45.462;10.974;2022-12-18T06:33:53;17.65;;;12.98;;
21639;SDS011;10981;45.462;10.974;2022-12-18T06:36:21;18.42;;;12.32;;
21639;SDS011;10981;45.462;10.974;2022-12-18T06:38:49;23.77;;;13.43;;
21639;SDS011;10981;45.462;10.974;2022-12-18T06:41:19;17.92;;;12.52;;
21639;SDS011;10981;45.462;10.974;2022-12-18T06:43:48;20.55;;;12.70;;
21639;SDS011;10981;45.462;10.974;2022-12-18T06:46:18;17.73;;;12.52;;
21639;SDS011;10981;45.462;10.974;2022-12-18T06:48:47;19.98;;;13.77;;
21639;SDS011;10981;45.462;10.974;2022-12-18T06:51:20;19.75;;;13.13;;
21639;SDS011;10981;45.462;10.974;2022-12-18T06:53:51;18.70;;;12.52;;
21639;SDS011;10981;45.462;10.974;2022-12-18T06:56:19;17.45;;;12.70;;
21639;SDS011;10981;45.462;10.974;2022-12-18T06:58:47;19.77;;;12.70;;
21639;SDS011;10981;45.462;10.974;2022-12-18T07:01:15;21.58;;;14.05;;
21639;SDS011;10981;45.462;10.974;2022-12-18T07:03:47;18.42;;;11.55;;
21639;SDS011;10981;45.462;10.974;2022-12-18T07:06:19;20.20;;;13.75;;
21639;SDS011;10981;45.462;10.974;2022-12-18T07:08:49;19.75;;;12.85;;
21639;SDS011;10981;45.462;10.974;2022-12-18T07:11:21;17.30;;;12.20;;
21639;SDS011;10981;45.462;10.974;2022-12-18T07:13:49;17.80;;;12.02;;
21639;SDS011;10981;45.462;10.974;2022-12-18T07:16:21;16.40;;;12.23;;
21639;SDS011;10981;45.462;10.974;2022-12-18T07:18:52;20.05;;;13.35;;
21639;SDS011;10981;45.462;10.974;2022-12-18T07:21:22;16.65;;;12.13;;
21639;SDS011;10981;45.462;10.974;2022-12-18T07:23:52;19.38;;;12.30;;
21639;SDS011;10981;45.462;10.974;2022-12-18T07:26:21;19.58;;;11.70;;
21639;SDS011;10981;45.462;10.974;2022-12-18T07:28:49;16.67;;;12.00;;
21639;SDS011;10981;45.462;10.974;2022-12-18T07:31:21;21.40;;;12.73;;
21639;SDS011;10981;45.462;10.974;2022-12-18T07:33:50;20.55;;;12.63;;
21639;SDS011;10981;45.462;10.974;2022-12-18T07:36:19;23.13;;;13.52;;
21639;SDS011;10981;45.462;10.974;2022-12-18T07:38:48;18.55;;;12.57;;
21639;SDS011;10981;45.462;10.974;2022-12-18T07:41:18;18.75;;;12.73;;
21639;SDS011;10981;45.462;10.974;2022-12-18T07:43:47;18.20;;;12.45;;
21639;SDS011;10981;45.462;10.974;2022-12-18T07:46:16;18.95;;;12.73;;
21639;SDS011;10981;45.462;10.974;2022-12-18T07:48:45;21.92;;;12.65;;
21639;SDS011;10981;45.462;10.974;2022-12-18T07:51:16;19.77;;;13.32;;
21639;SDS011;10981;45.462;10.974;2022-12-18T07:53:45;21.42;;;12.40;;
21639;SDS011;10981;45.462;10.974;2022-12-18T07:56:18;21.60;;;14.20;;
21639;SDS011;10981;45.462;10.974;2022-12-18T07:58:57;18.70;;;13.48;;
21639;SDS011;10981;45.462;10.974;2022-12-18T08:01:26;17.77;;;12.45;;
21639;SDS011;10981;45.462;10.974;2022-12-18T08:03:55;19.52;;;13.63;;
21639;SDS011;10981;45.462;10.974;2022-12-18T08:06:25;21.02;;;13.85;;
21639;SDS011;10981;45.462;10.974;2022-12-18T08:08:54;14.95;;;12.02;;
21639;SDS011;10981;45.462;10.974;2022-12-18T08:11:24;20.48;;;12.90;;
21639;SDS011;10981;45.462;10.974;2022-12-18T08:13:54;17.17;;;12.38;;
21639;SDS011;10981;45.462;10.974;2022-12-18T08:16:26;14.60;;;11.57;;
21639;SDS011;10981;45.462;10.974;2022-12-18T08:18:54;17.67;;;12.20;;
21639;SDS011;10981;45.462;10.974;2022-12-18T08:21:24;17.67;;;11.57;;
21639;SDS011;10981;45.462;10.974;2022-12-18T08:23:55;16.98;;;11.48;;
21639;SDS011;10981;45.462;10.974;2022-12-18T08:26:26;18.13;;;12.98;;
21639;SDS011;10981;45.462;10.974;2022-12-18T08:28:56;18.85;;;11.98;;
21639;SDS011;10981;45.462;10.974;2022-12-18T08:31:26;16.83;;;11.20;;
21639;SDS011;10981;45.462;10.974;2022-12-18T08:33:57;20.23;;;11.30;;
21639;SDS011;10981;45.462;10.974;2022-12-18T08:36:25;19.88;;;12.52;;
21639;SDS011;10981;45.462;10.974;2022-12-18T08:38:54;17.48;;;11.55;;
21639;SDS011;10981;45.462;10.974;2022-12-18T08:41:26;19.17;;;12.38;;
21639;SDS011;10981;45.462;10.974;2022-12-18T08:43:54;16.02;;;11.63;;
21639;SDS011;10981;45.462;10.974;2022-12-18T08:46:43;13.90;;;10.63;;
21639;SDS011;10981;45.462;10.974;2022-12-18T08:49:12;17.33;;;10.57;;
21639;SDS011;10981;45.462;10.974;2022-12-18T08:51:42;17.98;;;11.68;;
21639;SDS011;10981;45.462;10.974;2022-12-18T08:54:11;20.02;;;11.25;;
21639;SDS011;10981;45.462;10.974;2022-12-18T08:56:40;17.20;;;11.18;;
21639;SDS011;10981;45.462;10.974;2022-12-18T08:59:08;19.30;;;11.13;;
21639;SDS011;10981;45.462;10.974;2022-12-18T09:01:45;17.67;;;11.85;;
21639;SDS011;10981;45.462;10.974;2022-12-18T09:04:14;17.50;;;11.35;;
21639;SDS011;10981;45.462;10.974;2022-12-18T09:06:42;19.33;;;12.70;;
21639;SDS011;10981;45.462;10.974;2022-12-18T09:09:11;19.15;;;10.95;;
21639;SDS011;10981;45.462;10.974;2022-12-18T09:11:40;18.15;;;11.07;;
21639;SDS011;10981;45.462;10.974;2022-12-18T09:14:08;18.73;;;12.48;;
21639;SDS011;10981;45.462;10.974;2022-12-18T09:16:37;18.17;;;11.20;;
21639;SDS011;10981;45.462;10.974;2022-12-18T09:19:05;22.67;;;11.05;;
21639;SDS011;10981;45.462;10.974;2022-12-18T09:21:34;17.10;;;11.40;;
21639;SDS011;10981;45.462;10.974;2022-12-18T09:24:08;17.63;;;11.93;;
21639;SDS011;10981;45.462;10.974;2022-12-18T09:26:40;19.10;;;11.27;;
21639;SDS011;10981;45.462;10.974;2022-12-18T09:29:13;16.20;;;11.23;;
21639;SDS011;10981;45.462;10.974;2022-12-18T09:31:45;19.17;;;11.93;;
21639;SDS011;10981;45.462;10.974;2022-12-18T09:34:13;16.48;;;12.82;;
21639;SDS011;10981;45.462;10.974;2022-12-18T09:36:43;18.15;;;11.82;;
21639;SDS011;10981;45.462;10.974;2022-12-18T09:39:11;19.55;;;12.63;;
21639;SDS011;10981;45.462;10.974;2022-12-18T09:42:14;21.40;;;11.68;;
21639;SDS011;10981;45.462;10.974;2022-12-18T09:44:41;19.92;;;12.30;;
21639;SDS011;10981;45.462;10.974;2022-12-18T09:49:58;16.45;;;12.18;;
21639;SDS011;10981;45.462;10.974;2022-12-18T09:52:31;18.73;;;12.80;;
21639;SDS011;10981;45.462;10.974;2022-12-18T09:55:11;18.52;;;13.15;;
21639;SDS011;10981;45.462;10.974;2022-12-18T10:00:37;19.98;;;14.23;;
21639;SDS011;10981;45.462;10.974;2022-12-18T10:03:10;26.50;;;15.27;;
21639;SDS011;10981;45.462;10.974;2022-12-18T10:17:49;19.27;;;12.57;;
21639;SDS011;10981;45.462;10.974;2022-12-18T10:20:16;19.42;;;12.30;;
21639;SDS011;10981;45.462;10.974;2022-12-18T10:26:22;20.85;;;12.85;;
21639;SDS011;10981;45.462;10.974;2022-12-18T10:28:42;20.30;;;13.07;;
21639;SDS011;10981;45.462;10.974;2022-12-18T10:31:14;20.50;;;13.30;;
21639;SDS011;10981;45.462;10.974;2022-12-18T10:33:46;21.08;;;13.20;;
21639;SDS011;10981;45.462;10.974;2022-12-18T10:36:15;19.33;;;13.02;;
21639;SDS011;10981;45.462;10.974;2022-12-18T10:38:43;20.80;;;13.73;;
21639;SDS011;10981;45.462;10.974;2022-12-18T10:43:52;20.13;;;12.18;;
21639;SDS011;10981;45.462;10.974;2022-12-18T10:46:38;18.35;;;11.07;;
21639;SDS011;10981;45.462;10.974;2022-12-18T10:49:17;19.98;;;12.48;;
21639;SDS011;10981;45.462;10.974;2022-12-18T10:51:48;17.25;;;11.65;;
21639;SDS011;10981;45.462;10.974;2022-12-18T10:54:21;18.83;;;12.55;;
21639;SDS011;10981;45.462;10.974;2022-12-18T10:56:50;18.50;;;12.60;;
21639;SDS011;10981;45.462;10.974;2022-12-18T10:59:52;18.92;;;12.45;;
21639;SDS011;10981;45.462;10.974;2022-12-18T11:02:33;19.45;;;12.77;;
21639;SDS011;10981;45.462;10.974;2022-12-18T11:05:04;18.60;;;12.63;;
21639;SDS011;10981;45.462;10.974;2022-12-18T11:07:56;19.80;;;13.68;;
21639;SDS011;10981;45.462;10.974;2022-12-18T11:10:28;20.90;;;12.60;;
21639;SDS011;10981;45.462;10.974;2022-12-18T11:15:58;25.15;;;13.40;;
21639;SDS011;10981;45.462;10.974;2022-12-18T11:21:09;20.92;;;13.77;;
21639;SDS011;10981;45.462;10.974;2022-12-18T11:23:51;17.38;;;12.57;;
21639;SDS011;10981;45.462;10.974;2022-12-18T11:26:20;22.33;;;13.38;;
21639;SDS011;10981;45.462;10.974;2022-12-18T11:29:10;22.77;;;14.00;;
21639;SDS011;10981;45.462;10.974;2022-12-18T11:31:45;21.63;;;14.18;;
21639;SDS011;10981;45.462;10.974;2022-12-18T11:34:27;21.23;;;13.00;;
21639;SDS011;10981;45.462;10.974;2022-12-18T11:36:59;22.85;;;14.05;;
21639;SDS011;10981;45.462;10.974;2022-12-18T11:39:39;23.67;;;14.02;;
21639;SDS011;10981;45.462;10.974;2022-12-18T11:47:51;21.17;;;14.77;;
21639;SDS011;10981;45.462;10.974;2022-12-18T11:50:42;18.73;;;13.95;;
21639;SDS011;10981;45.462;10.974;2022-12-18T11:53:20;23.10;;;14.95;;
21639;SDS011;10981;45.462;10.974;2022-12-18T12:01:23;22.42;;;15.27;;
21639;SDS011;10981;45.462;10.974;2022-12-18T12:07:34;24.98;;;14.27;;
21639;SDS011;10981;45.462;10.974;2022-12-18T12:10:18;22.65;;;14.68;;
21639;SDS011;10981;45.462;10.974;2022-12-18T12:13:15;19.92;;;14.35;;
21639;SDS011;10981;45.462;10.974;2022-12-18T12:40:29;18.95;;;13.45;;
21639;SDS011;10981;45.462;10.974;2022-12-18T12:46:17;17.63;;;10.90;;
21639;SDS011;10981;45.462;10.974;2022-12-18T12:48:50;18.42;;;12.50;;
21639;SDS011;10981;45.462;10.974;2022-12-18T12:53:59;14.70;;;11.27;;
21639;SDS011;10981;45.462;10.974;2022-12-18T12:56:44;15.63;;;11.00;;
21639;SDS011;10981;45.462;10.974;2022-12-18T12:59:37;18.05;;;11.57;;
21639;SDS011;10981;45.462;10.974;2022-12-18T13:05:11;19.67;;;11.32;;
21639;SDS011;10981;45.462;10.974;2022-12-18T13:07:52;15.52;;;11.15;;
21639;SDS011;10981;45.462;10.974;2022-12-18T13:13:04;14.83;;;10.83;;
21639;SDS011;10981;45.462;10.974;2022-12-18T13:16:04;17.25;;;10.27;;
21639;SDS011;10981;45.462;10.974;2022-12-18T13:18:34;15.63;;;10.38;;
21639;SDS011;10981;45.462;10.974;2022-12-18T13:21:36;14.68;;;9.77;;
21639;SDS011;10981;45.462;10.974;2022-12-18T13:24:15;14.65;;;10.70;;
21639;SDS011;10981;45.462;10.974;2022-12-18T13:26:51;14.75;;;10.25;;
21639;SDS011;10981;45.462;10.974;2022-12-18T13:32:25;17.05;;;10.48;;
21639;SDS011;10981;45.462;10.974;2022-12-18T13:37:52;15.40;;;10.63;;
21639;SDS011;10981;45.462;10.974;2022-12-18T13:48:29;14.63;;;11.02;;
21639;SDS011;10981;45.462;10.974;2022-12-18T13:51:01;14.02;;;9.95;;
21639;SDS011;10981;45.462;10.974;2022-12-18T13:56:24;12.63;;;9.40;;
21639;SDS011;10981;45.462;10.974;2022-12-18T13:59:17;14.48;;;9.52;;
21639;SDS011;10981;45.462;10.974;2022-12-18T14:01:57;13.43;;;8.95;;
21639;SDS011;10981;45.462;10.974;2022-12-18T14:04:44;11.63;;;9.75;;
21639;SDS011;10981;45.462;10.974;2022-12-18T14:07:14;14.13;;;9.60;;
21639;SDS011;10981;45.462;10.974;2022-12-18T14:09:47;14.00;;;10.85;;
21639;SDS011;10981;45.462;10.974;2022-12-18T14:12:47;16.23;;;10.05;;
21639;SDS011;10981;45.462;10.974;2022-12-18T14:15:31;14.52;;;9.68;;
21639;SDS011;10981;45.462;10.974;2022-12-18T14:18:02;15.00;;;9.73;;
21639;SDS011;10981;45.462;10.974;2022-12-18T14:20:41;15.32;;;9.15;;
21639;SDS011;10981;45.462;10.974;2022-12-18T14:26:20;11.43;;;8.57;;
21639;SDS011;10981;45.462;10.974;2022-12-18T14:29:11;13.88;;;9.32;;
21639;SDS011;10981;45.462;10.974;2022-12-18T14:34:52;13.68;;;9.20;;
21639;SDS011;10981;45.462;10.974;2022-12-18T14:37:22;17.77;;;10.52;;
21639;SDS011;10981;45.462;10.974;2022-12-18T14:39:52;18.30;;;10.52;;
21639;SDS011;10981;45.462;10.974;2022-12-18T14:42:37;18.80;;;11.40;;
21639;SDS011;10981;45.462;10.974;2022-12-18T14:48:08;16.75;;;11.38;;
21639;SDS011;10981;45.462;10.974;2022-12-18T14:50:57;16.27;;;9.77;;
21639;SDS011;10981;45.462;10.974;2022-12-18T14:53:32;16.23;;;10.77;;
21639;SDS011;10981;45.462;10.974;2022-12-18T14:56:11;15.82;;;11.10;;
21639;SDS011;10981;45.462;10.974;2022-12-18T14:58:49;16.33;;;11.55;;
21639;SDS011;10981;45.462;10.974;2022-12-18T15:01:36;19.35;;;12.73;;
21639;SDS011;10981;45.462;10.974;2022-12-18T15:04:28;19.63;;;12.90;;
21639;SDS011;10981;45.462;10.974;2022-12-18T15:07:13;17.42;;;12.02;;
21639;SDS011;10981;45.462;10.974;2022-12-18T15:12:35;20.02;;;12.07;;
21639;SDS011;10981;45.462;10.974;2022-12-18T15:20:43;18.75;;;12.32;;
21639;SDS011;10981;45.462;10.974;2022-12-18T15:26:00;21.95;;;12.60;;
21639;SDS011;10981;45.462;10.974;2022-12-18T15:28:45;20.25;;;12.70;;
21639;SDS011;10981;45.462;10.974;2022-12-18T15:36:26;27.33;;;14.77;;
21639;SDS011;10981;45.462;10.974;2022-12-18T15:38:56;30.92;;;15.65;;
21639;SDS011;10981;45.462;10.974;2022-12-18T15:41:33;32.75;;;16.45;;
21639;SDS011;10981;45.462;10.974;2022-12-18T15:44:03;21.77;;;14.63;;
21639;SDS011;10981;45.462;10.974;2022-12-18T15:46:50;22.25;;;13.52;;
21639;SDS011;10981;45.462;10.974;2022-12-18T15:49:21;24.67;;;14.93;;
21639;SDS011;10981;45.462;10.974;2022-12-18T15:51:53;23.10;;;14.88;;
21639;SDS011;10981;45.462;10.974;2022-12-18T15:54:24;24.58;;;14.00;;
21639;SDS011;10981;45.462;10.974;2022-12-18T15:57:11;23.38;;;14.60;;
21639;SDS011;10981;45.462;10.974;2022-12-18T15:59:52;24.48;;;14.65;;
21639;SDS011;10981;45.462;10.974;2022-12-18T16:02:23;23.27;;;14.95;;
21639;SDS011;10981;45.462;10.974;2022-12-18T16:04:52;22.42;;;14.73;;
21639;SDS011;10981;45.462;10.974;2022-12-18T16:07:21;29.63;;;15.02;;
21639;SDS011;10981;45.462;10.974;2022-12-18T16:09:52;24.58;;;15.23;;
21639;SDS011;10981;45.462;10.974;2022-12-18T16:12:23;25.63;;;15.85;;
21639;SDS011;10981;45.462;10.974;2022-12-18T16:14:52;21.05;;;14.15;;
21639;SDS011;10981;45.462;10.974;2022-12-18T16:17:20;23.08;;;14.77;;
21639;SDS011;10981;45.462;10.974;2022-12-18T16:19:49;24.70;;;15.27;;
21639;SDS011;10981;45.462;10.974;2022-12-18T16:22:21;24.45;;;15.43;;
21639;SDS011;10981;45.462;10.974;2022-12-18T16:24:55;23.80;;;15.93;;
21639;SDS011;10981;45.462;10.974;2022-12-18T16:27:24;23.40;;;14.05;;
21639;SDS011;10981;45.462;10.974;2022-12-18T16:29:55;26.35;;;15.98;;
21639;SDS011;10981;45.462;10.974;2022-12-18T16:32:23;24.90;;;14.65;;
21639;SDS011;10981;45.462;10.974;2022-12-18T16:34:51;22.95;;;14.43;;
21639;SDS011;10981;45.462;10.974;2022-12-18T16:37:19;22.60;;;14.77;;
21639;SDS011;10981;45.462;10.974;2022-12-18T16:39:48;26.50;;;15.38;;
21639;SDS011;10981;45.462;10.974;2022-12-18T16:42:17;26.50;;;15.85;;
21639;SDS011;10981;45.462;10.974;2022-12-18T16:44:47;32.05;;;16.42;;
21639;SDS011;10981;45.462;10.974;2022-12-18T16:47:16;26.00;;;16.15;;
21639;SDS011;10981;45.462;10.974;2022-12-18T16:49:45;27.02;;;17.35;;
21639;SDS011;10981;45.462;10.974;2022-12-18T16:52:18;30.00;;;16.38;;
21639;SDS011;10981;45.462;10.974;2022-12-18T16:54:46;24.92;;;15.88;;
21639;SDS011;10981;45.462;10.974;2022-12-18T16:57:16;27.75;;;17.55;;
21639;SDS011;10981;45.462;10.974;2022-12-18T16:59:47;29.55;;;17.35;;
21639;SDS011;10981;45.462;10.974;2022-12-18T17:02:20;32.63;;;17.35;;
21639;SDS011;10981;45.462;10.974;2022-12-18T17:04:57;26.92;;;17.08;;
21639;SDS011;10981;45.462;10.974;2022-12-18T17:07:25;24.85;;;17.75;;
21639;SDS011;10981;45.462;10.974;2022-12-18T17:09:54;31.85;;;17.35;;
21639;SDS011;10981;45.462;10.974;2022-12-18T17:12:23;31.40;;;17.98;;
21639;SDS011;10981;45.462;10.974;2022-12-18T17:14:52;28.35;;;18.83;;
21639;SDS011;10981;45.462;10.974;2022-12-18T17:17:21;30.08;;;19.20;;
21639;SDS011;10981;45.462;10.974;2022-12-18T17:19:50;34.70;;;18.95;;
21639;SDS011;10981;45.462;10.974;2022-12-18T17:22:19;26.48;;;17.45;;
21639;SDS011;10981;45.462;10.974;2022-12-18T17:24:49;29.90;;;18.85;;
21639;SDS011;10981;45.462;10.974;2022-12-18T17:27:17;31.17;;;18.40;;